Aérodrome :
LOGIN :

S'inscrire | Disclaimer

   EN    FR    IT 

 










Légende :    VFR   VFR Marginal   IFR   IFR Intensif   IFR Très Intensif
Visi : 
Plafond : 
>= 8 km
>= 3000ft
5 à 8 km
1000 à 3000 ft
1500m à 5 km
500 à 1000 ft
800 à 1500m
200 à 500 ft
< 800m
< 200 ft
Symboles :   Orages  Brouillard  Fortes neiges  Fortes précipitations  Vent > 20 kt
SIGMETs :   Divers  Orages  Givrage  Turbulence  Onde Orograph.  Cendres Volcan.







- Altitude de l'aérodrome : 935 ft


EBFS - Florennes

DERNIER METAR :
  • 211225Z 34004KT 9999 FEW050 BKN055 24/10 Q1013 BLU BLU

METARs EXPIRÉS :
  • 211155Z 33005KT 9999 FEW040 BKN050 24/09 Q1013 BLU BLU
  • 211125Z 27004KT 9999 FEW040 BKN050 25/10 Q1013 BLU BLU
  • 211055Z VRB03KT 9999 FEW040 SCT050 23/10 Q1013 BLU BLU
  • 211025Z VRB03KT 9999 FEW035 SCT050 22/11 Q1013 BLU BLU
  • 210955Z VRB03KT 9999 FEW030 SCT070 21/12 Q1013 BLU BLU

TAF TAF EBFS
Valide du 21 à 13h jusqu'au 21 à 22h UTC


211141Z 2113/2122 33005KT 9999 FEW045 SCT090
PROB30
TEMPO 2115/2118 7000 -SHRA SCT045TCU SCT080
Pas de NOTAMs connus pour ce terrain.



MET'MAP, la Météo Aéronautique d'un coup d'oeil ! - Copyright ORBIFLY Décembre 2007 - Disclaimer

ORBIFLY MET'MAP TEAM :

Programmation & Développement : Alexandra Zaïnal
Conception & Développement : Baudouin d'Aumeries
Co-Programmation & Développement : Marc-Olivier Méhu
Soutien technique & logistique : Manuel Goepfert

Contact : metmap@orbifly.com




SOURCES & CREDITS :

   NOAA